sensor_id;sensor_type;location;lat;lon;timestamp;P1;durP1;ratioP1;P2;durP2;ratioP2
55082;SDS011;40978;52.850;6.506;2023-04-15T00:02:14;9.18;;;3.90;;
55082;SDS011;40978;52.850;6.506;2023-04-15T00:04:42;8.18;;;3.80;;
55082;SDS011;40978;52.850;6.506;2023-04-15T00:07:11;10.27;;;3.83;;
55082;SDS011;40978;52.850;6.506;2023-04-15T00:09:36;8.20;;;4.20;;
55082;SDS011;40978;52.850;6.506;2023-04-15T00:12:03;12.77;;;4.05;;
55082;SDS011;40978;52.850;6.506;2023-04-15T00:14:29;8.80;;;3.85;;
55082;SDS011;40978;52.850;6.506;2023-04-15T00:16:55;9.57;;;4.13;;
55082;SDS011;40978;52.850;6.506;2023-04-15T00:19:21;8.38;;;3.72;;
55082;SDS011;40978;52.850;6.506;2023-04-15T00:21:48;8.68;;;3.92;;
55082;SDS011;40978;52.850;6.506;2023-04-15T00:24:14;10.02;;;4.57;;
55082;SDS011;40978;52.850;6.506;2023-04-15T00:26:39;11.10;;;4.95;;
55082;SDS011;40978;52.850;6.506;2023-04-15T00:29:05;7.20;;;3.97;;
55082;SDS011;40978;52.850;6.506;2023-04-15T00:31:31;9.52;;;4.05;;
55082;SDS011;40978;52.850;6.506;2023-04-15T00:33:57;8.63;;;4.32;;
55082;SDS011;40978;52.850;6.506;2023-04-15T00:36:23;10.95;;;4.85;;
55082;SDS011;40978;52.850;6.506;2023-04-15T00:38:50;10.35;;;4.63;;
55082;SDS011;40978;52.850;6.506;2023-04-15T00:41:16;9.75;;;4.80;;
55082;SDS011;40978;52.850;6.506;2023-04-15T00:43:43;10.32;;;4.20;;
55082;SDS011;40978;52.850;6.506;2023-04-15T00:46:09;9.68;;;4.82;;
55082;SDS011;40978;52.850;6.506;2023-04-15T00:48:38;9.45;;;4.90;;
55082;SDS011;40978;52.850;6.506;2023-04-15T00:51:05;9.48;;;5.15;;
55082;SDS011;40978;52.850;6.506;2023-04-15T00:53:31;11.32;;;5.10;;
55082;SDS011;40978;52.850;6.506;2023-04-15T00:55:57;11.23;;;5.32;;
55082;SDS011;40978;52.850;6.506;2023-04-15T00:58:24;10.98;;;5.13;;
55082;SDS011;40978;52.850;6.506;2023-04-15T01:00:50;9.60;;;4.90;;
55082;SDS011;40978;52.850;6.506;2023-04-15T01:03:18;11.75;;;5.40;;
55082;SDS011;40978;52.850;6.506;2023-04-15T01:05:44;10.07;;;4.95;;
55082;SDS011;40978;52.850;6.506;2023-04-15T01:08:10;10.27;;;5.28;;
55082;SDS011;40978;52.850;6.506;2023-04-15T01:10:36;11.13;;;5.82;;
55082;SDS011;40978;52.850;6.506;2023-04-15T01:13:03;13.75;;;5.63;;
55082;SDS011;40978;52.850;6.506;2023-04-15T01:15:29;10.10;;;5.18;;
55082;SDS011;40978;52.850;6.506;2023-04-15T01:17:56;8.90;;;5.25;;
55082;SDS011;40978;52.850;6.506;2023-04-15T01:20:23;10.73;;;5.55;;
55082;SDS011;40978;52.850;6.506;2023-04-15T01:22:49;9.35;;;5.72;;
55082;SDS011;40978;52.850;6.506;2023-04-15T01:25:17;10.63;;;5.47;;
55082;SDS011;40978;52.850;6.506;2023-04-15T01:27:43;10.80;;;5.82;;
55082;SDS011;40978;52.850;6.506;2023-04-15T01:30:09;9.50;;;5.68;;
55082;SDS011;40978;52.850;6.506;2023-04-15T01:32:36;9.40;;;6.05;;
55082;SDS011;40978;52.850;6.506;2023-04-15T01:35:02;9.50;;;5.70;;
55082;SDS011;40978;52.850;6.506;2023-04-15T01:37:28;7.72;;;6.25;;
55082;SDS011;40978;52.850;6.506;2023-04-15T01:39:54;10.30;;;6.13;;
55082;SDS011;40978;52.850;6.506;2023-04-15T01:42:21;10.98;;;6.28;;
55082;SDS011;40978;52.850;6.506;2023-04-15T01:44:47;14.20;;;6.68;;
55082;SDS011;40978;52.850;6.506;2023-04-15T01:47:12;11.25;;;6.07;;
55082;SDS011;40978;52.850;6.506;2023-04-15T01:49:38;8.43;;;5.90;;
55082;SDS011;40978;52.850;6.506;2023-04-15T01:52:05;10.48;;;6.30;;
55082;SDS011;40978;52.850;6.506;2023-04-15T01:54:30;10.80;;;6.28;;
55082;SDS011;40978;52.850;6.506;2023-04-15T01:56:56;11.68;;;6.95;;
55082;SDS011;40978;52.850;6.506;2023-04-15T01:59:22;9.57;;;6.55;;
55082;SDS011;40978;52.850;6.506;2023-04-15T02:01:47;9.30;;;6.70;;
55082;SDS011;40978;52.850;6.506;2023-04-15T02:04:13;11.85;;;6.75;;
55082;SDS011;40978;52.850;6.506;2023-04-15T02:06:44;12.23;;;6.78;;
55082;SDS011;40978;52.850;6.506;2023-04-15T02:09:10;8.57;;;6.25;;
55082;SDS011;40978;52.850;6.506;2023-04-15T02:11:36;12.05;;;6.35;;
55082;SDS011;40978;52.850;6.506;2023-04-15T02:14:02;11.73;;;6.22;;
55082;SDS011;40978;52.850;6.506;2023-04-15T02:16:31;10.85;;;5.88;;
55082;SDS011;40978;52.850;6.506;2023-04-15T02:18:58;12.65;;;6.30;;
55082;SDS011;40978;52.850;6.506;2023-04-15T02:21:27;9.13;;;7.45;;
55082;SDS011;40978;52.850;6.506;2023-04-15T02:23:53;9.35;;;7.00;;
55082;SDS011;40978;52.850;6.506;2023-04-15T02:26:19;11.52;;;6.47;;
55082;SDS011;40978;52.850;6.506;2023-04-15T02:28:46;13.18;;;7.25;;
55082;SDS011;40978;52.850;6.506;2023-04-15T02:31:13;14.68;;;7.35;;
55082;SDS011;40978;52.850;6.506;2023-04-15T02:33:38;10.18;;;7.20;;
55082;SDS011;40978;52.850;6.506;2023-04-15T02:36:04;11.27;;;7.95;;
55082;SDS011;40978;52.850;6.506;2023-04-15T02:38:32;12.65;;;7.65;;
55082;SDS011;40978;52.850;6.506;2023-04-15T02:40:58;11.15;;;7.68;;
55082;SDS011;40978;52.850;6.506;2023-04-15T02:43:23;11.10;;;8.10;;
55082;SDS011;40978;52.850;6.506;2023-04-15T02:45:49;12.50;;;7.95;;
55082;SDS011;40978;52.850;6.506;2023-04-15T02:48:15;10.55;;;8.15;;
55082;SDS011;40978;52.850;6.506;2023-04-15T02:50:44;13.48;;;8.60;;
55082;SDS011;40978;52.850;6.506;2023-04-15T02:53:10;11.82;;;8.90;;
55082;SDS011;40978;52.850;6.506;2023-04-15T02:55:37;13.32;;;8.20;;
55082;SDS011;40978;52.850;6.506;2023-04-15T02:58:03;12.48;;;8.60;;
55082;SDS011;40978;52.850;6.506;2023-04-15T03:00:28;11.35;;;8.55;;
55082;SDS011;40978;52.850;6.506;2023-04-15T03:02:59;12.32;;;9.15;;
55082;SDS011;40978;52.850;6.506;2023-04-15T03:05:26;14.40;;;9.60;;
55082;SDS011;40978;52.850;6.506;2023-04-15T03:07:52;14.57;;;9.73;;
55082;SDS011;40978;52.850;6.506;2023-04-15T03:10:18;13.10;;;9.90;;
55082;SDS011;40978;52.850;6.506;2023-04-15T03:12:44;14.50;;;9.43;;
55082;SDS011;40978;52.850;6.506;2023-04-15T03:15:10;14.93;;;9.82;;
55082;SDS011;40978;52.850;6.506;2023-04-15T03:17:36;12.05;;;9.88;;
55082;SDS011;40978;52.850;6.506;2023-04-15T03:20:02;14.07;;;9.77;;
55082;SDS011;40978;52.850;6.506;2023-04-15T03:22:32;12.85;;;10.00;;
55082;SDS011;40978;52.850;6.506;2023-04-15T03:24:58;13.15;;;10.00;;
55082;SDS011;40978;52.850;6.506;2023-04-15T03:27:24;12.27;;;9.00;;
55082;SDS011;40978;52.850;6.506;2023-04-15T03:29:50;14.30;;;9.88;;
55082;SDS011;40978;52.850;6.506;2023-04-15T03:32:16;18.10;;;10.20;;
55082;SDS011;40978;52.850;6.506;2023-04-15T03:34:42;16.85;;;10.15;;
55082;SDS011;40978;52.850;6.506;2023-04-15T03:37:07;15.23;;;10.60;;
55082;SDS011;40978;52.850;6.506;2023-04-15T03:39:33;12.52;;;10.15;;
55082;SDS011;40978;52.850;6.506;2023-04-15T03:41:59;14.82;;;9.88;;
55082;SDS011;40978;52.850;6.506;2023-04-15T03:44:26;13.82;;;10.77;;
55082;SDS011;40978;52.850;6.506;2023-04-15T03:46:52;12.27;;;9.85;;
55082;SDS011;40978;52.850;6.506;2023-04-15T03:49:18;13.73;;;9.57;;
55082;SDS011;40978;52.850;6.506;2023-04-15T03:51:44;14.35;;;10.07;;
55082;SDS011;40978;52.850;6.506;2023-04-15T03:54:10;17.42;;;11.52;;
55082;SDS011;40978;52.850;6.506;2023-04-15T03:56:39;15.13;;;10.18;;
55082;SDS011;40978;52.850;6.506;2023-04-15T03:59:05;12.90;;;10.00;;
55082;SDS011;40978;52.850;6.506;2023-04-15T04:01:31;15.52;;;10.45;;
55082;SDS011;40978;52.850;6.506;2023-04-15T04:03:56;13.57;;;10.73;;
55082;SDS011;40978;52.850;6.506;2023-04-15T04:06:22;15.50;;;10.07;;
55082;SDS011;40978;52.850;6.506;2023-04-15T04:08:48;14.27;;;9.77;;
55082;SDS011;40978;52.850;6.506;2023-04-15T04:11:14;14.00;;;10.13;;
55082;SDS011;40978;52.850;6.506;2023-04-15T04:13:40;14.60;;;10.20;;
55082;SDS011;40978;52.850;6.506;2023-04-15T04:16:06;11.23;;;9.07;;
55082;SDS011;40978;52.850;6.506;2023-04-15T04:18:32;14.77;;;10.90;;
55082;SDS011;40978;52.850;6.506;2023-04-15T04:20:57;17.77;;;11.43;;
55082;SDS011;40978;52.850;6.506;2023-04-15T04:23:24;18.23;;;11.23;;
55082;SDS011;40978;52.850;6.506;2023-04-15T04:25:50;14.38;;;10.88;;
55082;SDS011;40978;52.850;6.506;2023-04-15T04:28:16;11.77;;;10.35;;
55082;SDS011;40978;52.850;6.506;2023-04-15T04:30:42;14.00;;;10.93;;
55082;SDS011;40978;52.850;6.506;2023-04-15T04:33:08;13.55;;;10.20;;
55082;SDS011;40978;52.850;6.506;2023-04-15T04:35:34;13.70;;;10.63;;
55082;SDS011;40978;52.850;6.506;2023-04-15T04:38:02;14.57;;;11.68;;
55082;SDS011;40978;52.850;6.506;2023-04-15T04:40:28;15.93;;;11.80;;
55082;SDS011;40978;52.850;6.506;2023-04-15T04:42:53;14.77;;;11.00;;
55082;SDS011;40978;52.850;6.506;2023-04-15T04:45:19;14.65;;;11.00;;
55082;SDS011;40978;52.850;6.506;2023-04-15T04:47:45;15.88;;;12.05;;
55082;SDS011;40978;52.850;6.506;2023-04-15T04:50:12;15.60;;;11.73;;
55082;SDS011;40978;52.850;6.506;2023-04-15T04:52:37;13.98;;;11.50;;
55082;SDS011;40978;52.850;6.506;2023-04-15T04:55:03;14.52;;;11.65;;
55082;SDS011;40978;52.850;6.506;2023-04-15T04:57:29;14.57;;;11.38;;
55082;SDS011;40978;52.850;6.506;2023-04-15T04:59:55;14.43;;;11.40;;
55082;SDS011;40978;52.850;6.506;2023-04-15T05:02:21;16.85;;;11.43;;
55082;SDS011;40978;52.850;6.506;2023-04-15T05:04:47;14.43;;;10.98;;
55082;SDS011;40978;52.850;6.506;2023-04-15T05:07:14;16.58;;;12.18;;
55082;SDS011;40978;52.850;6.506;2023-04-15T05:09:40;18.52;;;13.07;;
55082;SDS011;40978;52.850;6.506;2023-04-15T05:12:06;16.52;;;12.25;;
55082;SDS011;40978;52.850;6.506;2023-04-15T05:14:33;15.43;;;11.77;;
55082;SDS011;40978;52.850;6.506;2023-04-15T05:16:58;16.58;;;12.50;;
55082;SDS011;40978;52.850;6.506;2023-04-15T05:19:24;16.45;;;12.35;;
55082;SDS011;40978;52.850;6.506;2023-04-15T05:21:50;18.52;;;13.13;;
55082;SDS011;40978;52.850;6.506;2023-04-15T05:24:16;16.70;;;13.30;;
55082;SDS011;40978;52.850;6.506;2023-04-15T05:26:42;16.35;;;13.40;;
55082;SDS011;40978;52.850;6.506;2023-04-15T05:29:08;16.45;;;13.07;;
55082;SDS011;40978;52.850;6.506;2023-04-15T05:31:33;19.88;;;14.52;;
55082;SDS011;40978;52.850;6.506;2023-04-15T05:34:00;19.45;;;15.10;;
55082;SDS011;40978;52.850;6.506;2023-04-15T05:36:26;18.58;;;15.23;;
55082;SDS011;40978;52.850;6.506;2023-04-15T05:38:52;21.20;;;15.75;;
55082;SDS011;40978;52.850;6.506;2023-04-15T05:41:18;21.05;;;16.52;;
55082;SDS011;40978;52.850;6.506;2023-04-15T05:43:44;21.75;;;15.25;;
55082;SDS011;40978;52.850;6.506;2023-04-15T05:46:09;19.70;;;15.35;;
55082;SDS011;40978;52.850;6.506;2023-04-15T05:48:35;23.40;;;17.08;;
55082;SDS011;40978;52.850;6.506;2023-04-15T05:51:01;21.50;;;15.85;;
55082;SDS011;40978;52.850;6.506;2023-04-15T05:53:26;18.77;;;14.65;;
55082;SDS011;40978;52.850;6.506;2023-04-15T05:55:52;20.60;;;15.90;;
55082;SDS011;40978;52.850;6.506;2023-04-15T05:58:18;18.50;;;14.25;;
55082;SDS011;40978;52.850;6.506;2023-04-15T06:00:43;19.65;;;15.60;;
55082;SDS011;40978;52.850;6.506;2023-04-15T06:03:10;18.90;;;15.02;;
55082;SDS011;40978;52.850;6.506;2023-04-15T06:05:36;17.25;;;14.13;;
55082;SDS011;40978;52.850;6.506;2023-04-15T06:08:02;17.98;;;14.40;;
55082;SDS011;40978;52.850;6.506;2023-04-15T06:10:28;32.15;;;24.58;;
55082;SDS011;40978;52.850;6.506;2023-04-15T06:12:54;17.65;;;14.68;;
55082;SDS011;40978;52.850;6.506;2023-04-15T06:15:20;16.55;;;14.10;;
55082;SDS011;40978;52.850;6.506;2023-04-15T06:17:47;20.10;;;15.10;;
55082;SDS011;40978;52.850;6.506;2023-04-15T06:20:12;17.27;;;14.88;;
55082;SDS011;40978;52.850;6.506;2023-04-15T06:22:38;16.15;;;14.15;;
55082;SDS011;40978;52.850;6.506;2023-04-15T06:25:04;16.50;;;13.57;;
55082;SDS011;40978;52.850;6.506;2023-04-15T06:27:35;16.02;;;13.98;;
55082;SDS011;40978;52.850;6.506;2023-04-15T06:30:00;17.02;;;13.10;;
55082;SDS011;40978;52.850;6.506;2023-04-15T06:32:26;16.20;;;13.38;;
55082;SDS011;40978;52.850;6.506;2023-04-15T06:34:52;18.65;;;13.50;;
55082;SDS011;40978;52.850;6.506;2023-04-15T06:37:17;15.02;;;12.88;;
55082;SDS011;40978;52.850;6.506;2023-04-15T06:39:43;15.63;;;13.57;;
55082;SDS011;40978;52.850;6.506;2023-04-15T06:42:11;13.88;;;12.32;;
55082;SDS011;40978;52.850;6.506;2023-04-15T06:44:37;15.98;;;13.07;;
55082;SDS011;40978;52.850;6.506;2023-04-15T06:47:03;86.75;;;63.08;;
55082;SDS011;40978;52.850;6.506;2023-04-15T06:49:30;16.83;;;14.73;;
55082;SDS011;40978;52.850;6.506;2023-04-15T06:51:56;15.93;;;13.48;;
55082;SDS011;40978;52.850;6.506;2023-04-15T06:54:22;15.52;;;12.75;;
55082;SDS011;40978;52.850;6.506;2023-04-15T06:56:47;14.88;;;12.57;;
55082;SDS011;40978;52.850;6.506;2023-04-15T06:59:14;15.43;;;13.75;;
55082;SDS011;40978;52.850;6.506;2023-04-15T07:01:40;14.70;;;12.63;;
55082;SDS011;40978;52.850;6.506;2023-04-15T07:04:06;15.60;;;13.35;;
55082;SDS011;40978;52.850;6.506;2023-04-15T07:06:31;15.57;;;13.15;;
55082;SDS011;40978;52.850;6.506;2023-04-15T07:08:57;17.48;;;13.13;;
55082;SDS011;40978;52.850;6.506;2023-04-15T07:11:25;14.07;;;12.48;;
55082;SDS011;40978;52.850;6.506;2023-04-15T07:13:50;14.10;;;12.55;;
55082;SDS011;40978;52.850;6.506;2023-04-15T07:16:16;13.45;;;11.95;;
55082;SDS011;40978;52.850;6.506;2023-04-15T07:18:42;18.25;;;12.18;;
55082;SDS011;40978;52.850;6.506;2023-04-15T07:21:08;13.82;;;11.35;;
55082;SDS011;40978;52.850;6.506;2023-04-15T07:23:34;13.68;;;11.63;;
55082;SDS011;40978;52.850;6.506;2023-04-15T07:25:59;12.07;;;9.07;;
55082;SDS011;40978;52.850;6.506;2023-04-15T07:28:25;13.48;;;10.57;;
55082;SDS011;40978;52.850;6.506;2023-04-15T07:30:51;11.45;;;9.45;;
55082;SDS011;40978;52.850;6.506;2023-04-15T07:33:17;13.98;;;10.48;;
55082;SDS011;40978;52.850;6.506;2023-04-15T07:35:43;12.80;;;9.15;;
55082;SDS011;40978;52.850;6.506;2023-04-15T07:38:09;10.90;;;9.27;;
55082;SDS011;40978;52.850;6.506;2023-04-15T07:40:37;8.77;;;7.88;;
55082;SDS011;40978;52.850;6.506;2023-04-15T07:43:03;11.15;;;9.48;;
55082;SDS011;40978;52.850;6.506;2023-04-15T07:45:30;12.63;;;9.93;;
55082;SDS011;40978;52.850;6.506;2023-04-15T07:47:56;10.93;;;9.70;;
55082;SDS011;40978;52.850;6.506;2023-04-15T07:50:22;11.15;;;9.88;;
55082;SDS011;40978;52.850;6.506;2023-04-15T07:52:49;14.63;;;10.13;;
55082;SDS011;40978;52.850;6.506;2023-04-15T07:55:16;11.35;;;9.40;;
55082;SDS011;40978;52.850;6.506;2023-04-15T07:57:44;11.52;;;8.35;;
55082;SDS011;40978;52.850;6.506;2023-04-15T08:00:11;10.35;;;8.88;;
55082;SDS011;40978;52.850;6.506;2023-04-15T08:02:37;9.75;;;8.40;;
55082;SDS011;40978;52.850;6.506;2023-04-15T08:05:03;10.73;;;8.45;;
55082;SDS011;40978;52.850;6.506;2023-04-15T08:07:29;8.57;;;7.20;;
55082;SDS011;40978;52.850;6.506;2023-04-15T08:09:55;9.07;;;7.32;;
55082;SDS011;40978;52.850;6.506;2023-04-15T08:12:22;10.20;;;6.38;;
55082;SDS011;40978;52.850;6.506;2023-04-15T08:14:49;7.00;;;6.20;;
55082;SDS011;40978;52.850;6.506;2023-04-15T08:17:15;9.55;;;6.78;;
55082;SDS011;40978;52.850;6.506;2023-04-15T08:19:41;8.85;;;6.32;;
55082;SDS011;40978;52.850;6.506;2023-04-15T08:22:07;6.78;;;5.47;;
55082;SDS011;40978;52.850;6.506;2023-04-15T08:24:32;7.70;;;5.97;;
55082;SDS011;40978;52.850;6.506;2023-04-15T08:26:59;7.07;;;5.10;;
55082;SDS011;40978;52.850;6.506;2023-04-15T08:29:25;6.78;;;5.28;;
55082;SDS011;40978;52.850;6.506;2023-04-15T08:31:52;7.00;;;4.78;;
55082;SDS011;40978;52.850;6.506;2023-04-15T08:34:18;7.70;;;4.60;;
55082;SDS011;40978;52.850;6.506;2023-04-15T08:36:44;6.07;;;4.57;;
55082;SDS011;40978;52.850;6.506;2023-04-15T08:39:09;5.78;;;3.90;;
55082;SDS011;40978;52.850;6.506;2023-04-15T08:44:09;7.78;;;4.47;;
55082;SDS011;40978;52.850;6.506;2023-04-15T08:46:35;5.70;;;3.60;;
55082;SDS011;40978;52.850;6.506;2023-04-15T08:49:04;6.50;;;4.25;;
55082;SDS011;40978;52.850;6.506;2023-04-15T08:51:33;4.82;;;2.47;;
55082;SDS011;40978;52.850;6.506;2023-04-15T08:53:59;5.65;;;4.25;;
55082;SDS011;40978;52.850;6.506;2023-04-15T08:56:26;6.68;;;4.55;;
55082;SDS011;40978;52.850;6.506;2023-04-15T08:58:55;5.55;;;4.18;;
55082;SDS011;40978;52.850;6.506;2023-04-15T09:01:21;6.20;;;4.57;;
55082;SDS011;40978;52.850;6.506;2023-04-15T09:03:47;8.63;;;4.90;;
55082;SDS011;40978;52.850;6.506;2023-04-15T09:06:17;6.57;;;4.63;;
55082;SDS011;40978;52.850;6.506;2023-04-15T09:08:43;6.93;;;4.70;;
55082;SDS011;40978;52.850;6.506;2023-04-15T09:11:09;6.93;;;4.93;;
55082;SDS011;40978;52.850;6.506;2023-04-15T09:13:35;8.25;;;5.13;;
55082;SDS011;40978;52.850;6.506;2023-04-15T09:16:01;9.13;;;4.70;;
55082;SDS011;40978;52.850;6.506;2023-04-15T09:18:35;3.83;;;3.28;;
55082;SDS011;40978;52.850;6.506;2023-04-15T09:21:03;4.88;;;3.40;;
55082;SDS011;40978;52.850;6.506;2023-04-15T09:23:31;7.88;;;3.95;;
55082;SDS011;40978;52.850;6.506;2023-04-15T09:25:57;6.80;;;4.32;;
55082;SDS011;40978;52.850;6.506;2023-04-15T09:28:24;7.65;;;4.78;;
55082;SDS011;40978;52.850;6.506;2023-04-15T09:30:56;8.40;;;4.28;;
55082;SDS011;40978;52.850;6.506;2023-04-15T09:33:24;9.02;;;4.32;;
55082;SDS011;40978;52.850;6.506;2023-04-15T09:35:56;6.57;;;3.38;;
55082;SDS011;40978;52.850;6.506;2023-04-15T09:38:26;6.45;;;3.25;;
55082;SDS011;40978;52.850;6.506;2023-04-15T09:40:52;5.97;;;3.45;;
55082;SDS011;40978;52.850;6.506;2023-04-15T09:43:18;7.95;;;4.10;;
55082;SDS011;40978;52.850;6.506;2023-04-15T09:45:51;6.00;;;2.90;;
55082;SDS011;40978;52.850;6.506;2023-04-15T09:48:22;6.30;;;2.93;;
55082;SDS011;40978;52.850;6.506;2023-04-15T09:50:51;5.28;;;2.60;;
55082;SDS011;40978;52.850;6.506;2023-04-15T09:53:22;6.03;;;2.60;;
55082;SDS011;40978;52.850;6.506;2023-04-15T09:55:49;5.65;;;2.40;;
55082;SDS011;40978;52.850;6.506;2023-04-15T09:58:26;4.75;;;1.98;;
55082;SDS011;40978;52.850;6.506;2023-04-15T10:00:53;3.72;;;1.63;;
55082;SDS011;40978;52.850;6.506;2023-04-15T10:03:22;4.15;;;1.58;;
55082;SDS011;40978;52.850;6.506;2023-04-15T10:05:50;2.90;;;1.75;;
55082;SDS011;40978;52.850;6.506;2023-04-15T10:08:21;4.70;;;2.10;;
55082;SDS011;40978;52.850;6.506;2023-04-15T10:10:49;3.53;;;1.85;;
55082;SDS011;40978;52.850;6.506;2023-04-15T10:13:17;3.55;;;1.58;;
55082;SDS011;40978;52.850;6.506;2023-04-15T10:15:46;3.78;;;1.92;;
55082;SDS011;40978;52.850;6.506;2023-04-15T10:18:22;3.63;;;1.60;;
55082;SDS011;40978;52.850;6.506;2023-04-15T10:20:50;5.75;;;1.95;;
55082;SDS011;40978;52.850;6.506;2023-04-15T10:23:17;3.40;;;1.33;;
55082;SDS011;40978;52.850;6.506;2023-04-15T10:25:49;1.90;;;1.17;;
55082;SDS011;40978;52.850;6.506;2023-04-15T10:28:18;2.83;;;1.35;;
55082;SDS011;40978;52.850;6.506;2023-04-15T10:30:44;4.38;;;1.90;;
55082;SDS011;40978;52.850;6.506;2023-04-15T10:33:12;1.75;;;1.00;;
55082;SDS011;40978;52.850;6.506;2023-04-15T10:35:38;2.13;;;1.00;;
55082;SDS011;40978;52.850;6.506;2023-04-15T10:38:30;4.13;;;1.40;;
55082;SDS011;40978;52.850;6.506;2023-04-15T10:46:11;3.25;;;1.42;;
55082;SDS011;40978;52.850;6.506;2023-04-15T10:48:37;2.40;;;1.23;;
55082;SDS011;40978;52.850;6.506;2023-04-15T10:51:03;2.75;;;1.05;;
55082;SDS011;40978;52.850;6.506;2023-04-15T10:53:29;4.13;;;1.20;;
55082;SDS011;40978;52.850;6.506;2023-04-15T10:55:59;3.30;;;1.50;;
55082;SDS011;40978;52.850;6.506;2023-04-15T10:58:24;1.90;;;1.42;;
55082;SDS011;40978;52.850;6.506;2023-04-15T11:00:51;2.80;;;1.30;;
55082;SDS011;40978;52.850;6.506;2023-04-15T11:03:39;3.35;;;1.10;;
55082;SDS011;40978;52.850;6.506;2023-04-15T11:06:05;2.88;;;1.17;;
55082;SDS011;40978;52.850;6.506;2023-04-15T11:08:53;1.90;;;0.95;;
55082;SDS011;40978;52.850;6.506;2023-04-15T11:11:18;6.50;;;1.10;;
55082;SDS011;40978;52.850;6.506;2023-04-15T11:13:48;2.88;;;1.20;;
55082;SDS011;40978;52.850;6.506;2023-04-15T11:16:15;3.85;;;1.10;;
55082;SDS011;40978;52.850;6.506;2023-04-15T11:18:41;2.97;;;0.85;;
55082;SDS011;40978;52.850;6.506;2023-04-15T11:21:17;1.75;;;0.93;;
55082;SDS011;40978;52.850;6.506;2023-04-15T11:23:43;5.03;;;1.30;;
55082;SDS011;40978;52.850;6.506;2023-04-15T11:26:11;2.78;;;1.10;;
55082;SDS011;40978;52.850;6.506;2023-04-15T11:28:42;2.42;;;0.95;;
55082;SDS011;40978;52.850;6.506;2023-04-15T11:31:10;5.03;;;1.15;;
55082;SDS011;40978;52.850;6.506;2023-04-15T11:33:52;2.45;;;1.15;;
55082;SDS011;40978;52.850;6.506;2023-04-15T11:36:26;4.30;;;1.42;;
55082;SDS011;40978;52.850;6.506;2023-04-15T11:38:53;3.88;;;1.20;;
55082;SDS011;40978;52.850;6.506;2023-04-15T11:41:20;2.92;;;1.15;;
55082;SDS011;40978;52.850;6.506;2023-04-15T11:43:50;3.17;;;1.35;;
55082;SDS011;40978;52.850;6.506;2023-04-15T11:46:16;4.68;;;1.88;;
55082;SDS011;40978;52.850;6.506;2023-04-15T11:48:43;5.20;;;1.67;;
55082;SDS011;40978;52.850;6.506;2023-04-15T11:51:10;4.20;;;1.27;;
55082;SDS011;40978;52.850;6.506;2023-04-15T11:53:37;6.10;;;1.65;;
55082;SDS011;40978;52.850;6.506;2023-04-15T11:56:04;4.22;;;1.65;;
55082;SDS011;40978;52.850;6.506;2023-04-15T11:58:32;4.70;;;1.60;;
55082;SDS011;40978;52.850;6.506;2023-04-15T12:01:03;4.32;;;1.40;;
55082;SDS011;40978;52.850;6.506;2023-04-15T12:03:52;5.40;;;1.73;;
55082;SDS011;40978;52.850;6.506;2023-04-15T12:08:47;4.47;;;1.70;;
55082;SDS011;40978;52.850;6.506;2023-04-15T12:11:14;5.35;;;1.90;;
55082;SDS011;40978;52.850;6.506;2023-04-15T12:13:47;4.45;;;1.35;;
55082;SDS011;40978;52.850;6.506;2023-04-15T12:16:18;4.28;;;1.67;;
55082;SDS011;40978;52.850;6.506;2023-04-15T12:18:45;4.82;;;1.60;;
55082;SDS011;40978;52.850;6.506;2023-04-15T12:21:11;4.43;;;1.48;;
55082;SDS011;40978;52.850;6.506;2023-04-15T12:23:37;5.53;;;1.20;;
55082;SDS011;40978;52.850;6.506;2023-04-15T12:26:14;5.05;;;1.17;;
55082;SDS011;40978;52.850;6.506;2023-04-15T12:28:40;5.15;;;1.27;;
55082;SDS011;40978;52.850;6.506;2023-04-15T12:31:08;5.38;;;1.38;;
55082;SDS011;40978;52.850;6.506;2023-04-15T12:33:35;7.65;;;1.60;;
55082;SDS011;40978;52.850;6.506;2023-04-15T12:36:02;4.95;;;1.25;;
55082;SDS011;40978;52.850;6.506;2023-04-15T12:38:28;5.53;;;1.42;;
55082;SDS011;40978;52.850;6.506;2023-04-15T12:40:55;5.00;;;1.40;;
55082;SDS011;40978;52.850;6.506;2023-04-15T12:43:22;4.13;;;1.00;;
55082;SDS011;40978;52.850;6.506;2023-04-15T12:45:47;5.75;;;1.17;;
55082;SDS011;40978;52.850;6.506;2023-04-15T12:48:13;6.57;;;1.42;;
55082;SDS011;40978;52.850;6.506;2023-04-15T12:50:39;4.00;;;1.50;;
55082;SDS011;40978;52.850;6.506;2023-04-15T12:53:05;9.25;;;1.75;;
55082;SDS011;40978;52.850;6.506;2023-04-15T12:55:31;6.72;;;1.25;;
55082;SDS011;40978;52.850;6.506;2023-04-15T12:57:57;4.30;;;1.42;;
55082;SDS011;40978;52.850;6.506;2023-04-15T13:00:23;6.30;;;1.52;;
55082;SDS011;40978;52.850;6.506;2023-04-15T13:02:49;5.82;;;1.33;;
55082;SDS011;40978;52.850;6.506;2023-04-15T13:05:14;7.95;;;1.75;;
55082;SDS011;40978;52.850;6.506;2023-04-15T13:07:41;6.65;;;1.40;;
55082;SDS011;40978;52.850;6.506;2023-04-15T13:10:07;5.47;;;1.23;;
55082;SDS011;40978;52.850;6.506;2023-04-15T13:12:33;5.25;;;1.08;;
55082;SDS011;40978;52.850;6.506;2023-04-15T13:15:02;5.00;;;1.40;;
55082;SDS011;40978;52.850;6.506;2023-04-15T13:17:29;4.93;;;1.20;;
55082;SDS011;40978;52.850;6.506;2023-04-15T13:19:55;6.53;;;1.60;;
55082;SDS011;40978;52.850;6.506;2023-04-15T13:22:21;8.50;;;1.38;;
55082;SDS011;40978;52.850;6.506;2023-04-15T13:24:46;7.95;;;1.02;;
55082;SDS011;40978;52.850;6.506;2023-04-15T13:27:12;6.55;;;1.30;;
55082;SDS011;40978;52.850;6.506;2023-04-15T13:29:38;7.20;;;1.27;;
55082;SDS011;40978;52.850;6.506;2023-04-15T13:32:04;6.80;;;1.70;;
55082;SDS011;40978;52.850;6.506;2023-04-15T13:34:30;6.63;;;1.60;;
55082;SDS011;40978;52.850;6.506;2023-04-15T13:36:56;5.75;;;1.05;;
55082;SDS011;40978;52.850;6.506;2023-04-15T13:39:22;6.13;;;1.30;;
55082;SDS011;40978;52.850;6.506;2023-04-15T13:41:47;8.30;;;1.13;;
55082;SDS011;40978;52.850;6.506;2023-04-15T13:44:13;6.32;;;1.13;;
55082;SDS011;40978;52.850;6.506;2023-04-15T13:46:39;8.05;;;1.33;;
55082;SDS011;40978;52.850;6.506;2023-04-15T13:49:08;7.60;;;1.20;;
55082;SDS011;40978;52.850;6.506;2023-04-15T13:51:33;8.13;;;1.02;;
55082;SDS011;40978;52.850;6.506;2023-04-15T13:54:01;5.90;;;1.63;;
55082;SDS011;40978;52.850;6.506;2023-04-15T13:56:27;7.53;;;1.35;;
55082;SDS011;40978;52.850;6.506;2023-04-15T13:58:53;7.07;;;1.15;;
55082;SDS011;40978;52.850;6.506;2023-04-15T14:01:23;8.68;;;1.33;;
55082;SDS011;40978;52.850;6.506;2023-04-15T14:03:49;8.23;;;1.20;;
55082;SDS011;40978;52.850;6.506;2023-04-15T14:06:15;9.32;;;1.20;;
55082;SDS011;40978;52.850;6.506;2023-04-15T14:08:41;6.72;;;1.00;;
55082;SDS011;40978;52.850;6.506;2023-04-15T14:11:07;11.45;;;1.55;;
55082;SDS011;40978;52.850;6.506;2023-04-15T14:13:32;9.07;;;1.27;;
55082;SDS011;40978;52.850;6.506;2023-04-15T14:15:58;4.13;;;0.80;;
55082;SDS011;40978;52.850;6.506;2023-04-15T14:18:24;5.25;;;1.00;;
55082;SDS011;40978;52.850;6.506;2023-04-15T14:20:50;8.57;;;1.75;;
55082;SDS011;40978;52.850;6.506;2023-04-15T14:23:15;6.63;;;1.10;;
55082;SDS011;40978;52.850;6.506;2023-04-15T14:25:41;6.90;;;1.05;;
55082;SDS011;40978;52.850;6.506;2023-04-15T14:28:07;7.53;;;1.05;;
55082;SDS011;40978;52.850;6.506;2023-04-15T14:30:33;7.45;;;1.30;;
55082;SDS011;40978;52.850;6.506;2023-04-15T14:32:59;5.22;;;1.00;;
55082;SDS011;40978;52.850;6.506;2023-04-15T14:35:25;5.97;;;1.33;;
55082;SDS011;40978;52.850;6.506;2023-04-15T14:37:54;7.30;;;1.13;;
55082;SDS011;40978;52.850;6.506;2023-04-15T14:40:20;5.88;;;1.00;;
55082;SDS011;40978;52.850;6.506;2023-04-15T14:42:46;6.43;;;0.90;;
55082;SDS011;40978;52.850;6.506;2023-04-15T14:45:12;8.27;;;1.33;;
55082;SDS011;40978;52.850;6.506;2023-04-15T14:47:37;2.92;;;0.70;;